^^
Station Historical Data
Daily Summary for April 29, 2017 Units:  Metric    English   Both
« Previous Day
Next Day »
Daily Weekly Monthly Yearly Custom
  High: Low: Average:
Temperature: 30.2 °C 20.2 °C 25.3 °C
Dew Point: 9 °C 4.2 °C 6.7 °C
Humidity: 43% 22% 31%
Wind Speed: 41.7km/h 0km/h 14km/h
Wind Gust: 48.3km/h - -
Wind- - East
Pressure: 1016.8 hPa 1012.4 hPa -
Precipitation: 0 mm    
Historical Graphs
 
 
Tabular Data for April 29, 2017
Time Temperature Dew Point Pressure Wind Wind Speed Wind Gust Humidity Rainfall Rate (Hourly) solar Conditions
00:19 25.2 °C 6.4 °C 1014.8 hPa NE 17.7 km/h 22.5 km/h 30% 0 mm 0.0 W/m2
00:24 25.2 °C 6.4 °C 1014.8 hPa NE 14.3 km/h 29 km/h 30% 0 mm 0.0 W/m2
00:29 25.2 °C 6.4 °C 1014.8 hPa ENE 13 km/h 22.5 km/h 30% 0 mm 0.0 W/m2
00:39 25.1 °C 6.3 °C 1014.8 hPa NE 9.7 km/h 24.1 km/h 30% 0 mm 0.0 W/m2
00:49 24.9 °C 6.6 °C 1014.8 hPa NNE 16.3 km/h 24.1 km/h 31% 0 mm 0.0 W/m2
00:54 24.9 °C 6.6 °C 1014.8 hPa NE 9.7 km/h 25.7 km/h 31% 0 mm 0.0 W/m2
00:59 24.8 °C 6.5 °C 1014.8 hPa NE 19.5 km/h 20.9 km/h 31% 0 mm 0.0 W/m2
01:04 24.8 °C 6.5 °C 1014.8 hPa NE 14.3 km/h 24.1 km/h 31% 0 mm 0.0 W/m2
01:09 24.7 °C 6.4 °C 1014.8 hPa NE 14.3 km/h 24.1 km/h 31% 0 mm 0.0 W/m2
01:14 24.7 °C 6.4 °C 1014.4 hPa NE 11.1 km/h 30.6 km/h 31% 0 mm 0.0 W/m2
01:19 24.6 °C 6.8 °C 1014.4 hPa NE 17.7 km/h 22.5 km/h 32% 0 mm 0.0 W/m2
01:44 24 °C 6.7 °C 1014.4 hPa NE 9.7 km/h 20.9 km/h 33% 0 mm 0.0 W/m2
01:54 23.9 °C 7.1 °C 1014.4 hPa NE 11.1 km/h 17.7 km/h 34% 0 mm 0.0 W/m2
02:04 23.7 °C 6.9 °C 1014.4 hPa NE 14.3 km/h 16.1 km/h 34% 0 mm 0.0 W/m2
02:14 23.8 °C 7 °C 1014.8 hPa NNE 13 km/h 20.9 km/h 34% 0 mm 0.0 W/m2
02:19 23.8 °C 7 °C 1014.8 hPa North 20.9 km/h 22.5 km/h 34% 0 mm 0.0 W/m2
02:29 23.6 °C 6.8 °C 1014.8 hPa North 3.2 km/h 17.7 km/h 34% 0 mm 0.0 W/m2
02:39 23.3 °C 7 °C 1014.8 hPa Calm   16.1 km/h 35% 0 mm 0.0 W/m2
02:44 23.2 °C 7.3 °C 1014.4 hPa NE 7.9 km/h 14.5 km/h 36% 0 mm 0.0 W/m2
02:49 23.2 °C 7.3 °C 1014.8 hPa NNE 9.7 km/h 16.1 km/h 36% 0 mm 0.0 W/m2
02:54 23.1 °C 7.2 °C 1014.8 hPa NNE 13 km/h 19.3 km/h 36% 0 mm 0.0 W/m2
03:04 23.1 °C 7.2 °C 1014.8 hPa NNE 3.2 km/h 14.5 km/h 36% 0 mm 0.0 W/m2
03:09 22.9 °C 7 °C 1014.8 hPa Calm   6.4 km/h 36% 0 mm 0.0 W/m2
03:20 22.6 °C 7.2 °C 1014.8 hPa Calm     37% 0 mm 0.0 W/m2
03:25 22.4 °C 7 °C 1014.8 hPa Calm     37% 0 mm 0.0 W/m2
03:30 22.3 °C 7.3 °C 1014.8 hPa NE 9.7 km/h 16.1 km/h 38% 0 mm 0.0 W/m2
03:35 22.2 °C 7.2 °C 1014.8 hPa NNE 11.1 km/h 14.5 km/h 38% 0 mm 0.0 W/m2
03:45 22.1 °C 7.1 °C 1014.8 hPa NNE 14.3 km/h 16.1 km/h 38% 0 mm 0.0 W/m2
04:05 21.7 °C 7.1 °C 1014.8 hPa Calm   16.1 km/h 39% 0 mm 0.0 W/m2
04:20 21 °C 6.9 °C 1014.8 hPa NE 4.7 km/h 11.3 km/h 40% 0 mm 0.0 W/m2
04:25 20.9 °C 7.2 °C 1014.8 hPa NE 13 km/h 16.1 km/h 41% 0 mm 0.0 W/m2
04:30 20.9 °C 6.8 °C 1014.8 hPa NE 6.4 km/h 12.9 km/h 40% 0 mm 0.0 W/m2
04:35 20.7 °C 7 °C 1014.8 hPa NE 4.7 km/h 12.9 km/h 41% 0 mm 0.0 W/m2
04:40 20.7 °C 7 °C 1014.8 hPa NE 6.4 km/h 14.5 km/h 41% 0 mm 0.0 W/m2
04:45 20.7 °C 7.3 °C 1014.8 hPa NE 9.7 km/h 12.9 km/h 42% 0 mm 0.0 W/m2
04:50 20.7 °C 7.3 °C 1014.8 hPa NE 9.7 km/h 17.7 km/h 42% 0 mm 0.0 W/m2
04:55 20.6 °C 7.2 °C 1014.8 hPa NE 6.4 km/h 16.1 km/h 42% 0 mm 0.0 W/m2
05:00 20.5 °C 7.1 °C 1015.1 hPa NE 7.9 km/h 17.7 km/h 42% 0 mm 0.0 W/m2
05:05 20.3 °C 7 °C 1015.1 hPa NE 11.1 km/h 14.5 km/h 42% 0 mm 0.0 W/m2
05:15 20.2 °C 6.9 °C 1015.1 hPa NE 14.3 km/h 16.1 km/h 42% 0 mm 0.0 W/m2
05:20 20.4 °C 7.1 °C 1015.1 hPa NE 9.7 km/h 16.1 km/h 42% 0 mm 0.0 W/m2
05:25 20.4 °C 7.1 °C 1015.1 hPa NE 11.1 km/h 16.1 km/h 42% 0 mm 0.0 W/m2
05:30 20.3 °C 7 °C 1015.5 hPa NE 9.7 km/h 16.1 km/h 42% 0 mm 0.0 W/m2
05:45 20.2 °C 6.9 °C 1015.5 hPa NE 7.9 km/h 11.3 km/h 42% 0 mm 0.0 W/m2
05:55 20.2 °C 7.2 °C 1015.5 hPa NE 6.4 km/h 14.5 km/h 43% 0 mm 0.0 W/m2
06:00 20.4 °C 7.4 °C 1015.5 hPa NE 7.9 km/h 17.7 km/h 43% 0 mm 0.0 W/m2
06:06 20.4 °C 7.4 °C 1015.8 hPa NE 6.4 km/h 14.5 km/h 43% 0 mm 0.0 W/m2
06:11 20.4 °C 7.4 °C 1015.8 hPa NE 7.9 km/h 12.9 km/h 43% 0 mm 0.0 W/m2
06:21 20.4 °C 7.4 °C 1016.1 hPa NE 16.3 km/h 16.3 km/h 43% 0 mm 7.0 W/m2
06:32 20.6 °C 7.6 °C 1016.1 hPa NE 9.7 km/h 14.5 km/h 43% 0 mm 12.0 W/m2
06:53 21.4 °C 8 °C 1016.1 hPa Calm     42% 0 mm 40.0 W/m2
07:06 22.1 °C 7.9 °C 1016.1 hPa Calm     40% 0 mm 86.0 W/m2
07:14 22.7 °C 8 °C 1016.1 hPa Calm   12.9 km/h 39% 0 mm 125.0 W/m2
07:24 23.3 °C 8.2 °C 1016.5 hPa NE 13 km/h 17.7 km/h 38% 0 mm 165.0 W/m2
07:33 23.8 °C 8.2 °C 1016.5 hPa NE 22.7 km/h 30.6 km/h 37% 0 mm 204.0 W/m2
07:39 23.9 °C 8.3 °C 1016.5 hPa NNE 27.4 km/h 30.6 km/h 37% 0 mm 221.0 W/m2
07:50 24.2 °C 8.6 °C 1016.8 hPa NNE 13 km/h 30.6 km/h 37% 0 mm 257.0 W/m2
07:56 24.4 °C 8.4 °C 1016.8 hPa NNE 14.3 km/h 30.6 km/h 36% 0 mm 288.0 W/m2
08:11 24.5 °C 8.4 °C 1016.8 hPa NNE 30.6 km/h 38.6 km/h 36% 0 mm 332.0 W/m2
08:30 24.7 °C 8.6 °C 1016.8 hPa NNE 25.9 km/h 35.4 km/h 36% 0 mm 378.0 W/m2
08:36 24.8 °C 8.7 °C 1016.8 hPa NNE 27.4 km/h 45.1 km/h 36% 0 mm 406.0 W/m2
08:50 24.9 °C 8.8 °C 1016.8 hPa NNW 28.8 km/h 33.8 km/h 36% 0 mm 436.0 W/m2
08:56 24.9 °C 8.8 °C 1016.8 hPa NNE 14.3 km/h 46.7 km/h 36% 0 mm 462.0 W/m2
09:12 25.1 °C 8.6 °C 1016.8 hPa NNE 33.8 km/h 46.7 km/h 35% 0 mm 487.0 W/m2
09:26 25.2 °C 8.6 °C 1016.8 hPa North 28.8 km/h 46.7 km/h 35% 0 mm 524.0 W/m2
09:36 25.2 °C 8.6 °C 1016.8 hPa NNE 14.3 km/h 40.2 km/h 35% 0 mm 545.0 W/m2
09:46 25.5 °C 8.9 °C 1016.8 hPa NE 27.4 km/h 35.4 km/h 35% 0 mm 568.0 W/m2
09:52 25.6 °C 9 °C 1016.8 hPa North 25.9 km/h 38.6 km/h 35% 0 mm 585.0 W/m2
10:12 25.8 °C 8.7 °C 1016.8 hPa NE 19.5 km/h 35.4 km/h 34% 0 mm 613.0 W/m2
10:27 26.1 °C 9 °C 1016.5 hPa North 27.4 km/h 29 km/h 34% 0 mm 636.0 W/m2
10:42 26.5 °C 8.9 °C 1016.5 hPa NNE 41.7 km/h 41.8 km/h 33% 0 mm 656.0 W/m2
10:57 27.2 °C 8.6 °C 1016.1 hPa NNE 11.1 km/h 30.6 km/h 31% 0 mm 671.0 W/m2
11:02 27.4 °C 8.8 °C 1016.1 hPa North 9.7 km/h 22.5 km/h 31% 0 mm 684.0 W/m2
11:23 28.2 °C 9 °C 1015.5 hPa NNW 24.1 km/h 32.2 km/h 30% 0 mm 696.0 W/m2
11:32 28.2 °C 8 °C 1015.1 hPa North 14.3 km/h 37 km/h 28% 0 mm 710.0 W/m2
11:47 29 °C 7.6 °C 1014.8 hPa North 20.9 km/h 24.1 km/h 26% 0 mm 652.0 W/m2
12:08 29.3 °C 7.2 °C 1014.8 hPa North 24.1 km/h 38.6 km/h 25% 0 mm 694.0 W/m2
12:22 29.3 °C 7.2 °C 1014.4 hPa North 13 km/h 37 km/h 25% 0 mm 686.0 W/m2
12:32 29.7 °C 7 °C 1014.1 hPa NNE 20.9 km/h 32.2 km/h 24% 0 mm 675.0 W/m2
12:42 29.8 °C 6.4 °C 1014.1 hPa NNE 19.5 km/h 48.3 km/h 23% 0 mm 668.0 W/m2
13:04 29.5 °C 6.2 °C 1013.4 hPa NNE 22.7 km/h 35.4 km/h 23% 0 mm 652.0 W/m2
13:12 29.8 °C 5.8 °C 1013.4 hPa North 14.3 km/h 32.2 km/h 22% 0 mm 626.0 W/m2
13:33 30 °C 6.6 °C 1013.1 hPa NNE 9.7 km/h 30.6 km/h 23% 0 mm 606.0 W/m2
13:48 29.8 °C 6.4 °C 1012.8 hPa NNE 17.7 km/h 24.1 km/h 23% 0 mm 585.0 W/m2
13:58 30.1 °C 6 °C 1012.8 hPa North 17.7 km/h 25.7 km/h 22% 0 mm 555.0 W/m2
14:13 30.1 °C 6 °C 1012.8 hPa NNE 20.9 km/h 29 km/h 22% 0 mm 522.0 W/m2
14:25 30.2 °C 6.1 °C 1012.8 hPa North 14.3 km/h 30.6 km/h 22% 0 mm 496.0 W/m2
14:28 30.2 °C 6.1 °C 1012.8 hPa North 20.9 km/h 35.4 km/h 22% 0 mm 485.0 W/m2
14:33 30.2 °C 6.1 °C 1012.8 hPa NE 24.1 km/h 38.6 km/h 22% 0 mm 469.0 W/m2
14:43 30.1 °C 6 °C 1012.8 hPa North 13 km/h 27.4 km/h 22% 0 mm 439.0 W/m2
14:58 30.1 °C 6 °C 1012.4 hPa NNW 19.5 km/h 37 km/h 22% 0 mm 401.0 W/m2
15:13 29.9 °C 5.9 °C 1012.4 hPa North 22.7 km/h 33.8 km/h 22% 0 mm 360.0 W/m2
15:28 30 °C 6 °C 1012.4 hPa NNW 22.7 km/h 30.6 km/h 22% 0 mm 313.0 W/m2
15:47 29.8 °C 5.8 °C 1012.4 hPa NNE 25.9 km/h 30.6 km/h 22% 0 mm 267.0 W/m2
15:53 29.8 °C 5.8 °C 1012.4 hPa NNE 14.3 km/h 32.2 km/h 22% 0 mm 234.0 W/m2
16:03 29.8 °C 5.8 °C 1012.8 hPa North 9.7 km/h 35.4 km/h 22% 0 mm 195.0 W/m2
16:18 29.6 °C 5.6 °C 1012.4 hPa North 3.2 km/h 30.6 km/h 22% 0 mm 139.0 W/m2
16:32 29.4 °C 5.5 °C 1012.4 hPa NNE 27.4 km/h 37 km/h 22% 0 mm 97.0 W/m2
16:38 29.2 °C 5.3 °C 1012.8 hPa North 22.7 km/h 29 km/h 22% 0 mm 65.0 W/m2
16:53 29 °C 5.1 °C 1012.8 hPa NNW 22.7 km/h 30.6 km/h 22% 0 mm 40.0 W/m2
17:03 28.7 °C 4.9 °C 1012.8 hPa North 16.3 km/h 29 km/h 22% 0 mm 12.0 W/m2
17:17 28.4 °C 5.3 °C 1013.1 hPa NNE 13 km/h 29 km/h 23% 0 mm 5.0 W/m2
17:23 28.2 °C 5.1 °C 1013.1 hPa NNE 13 km/h 27.4 km/h 23% 0 mm 0.0 W/m2
17:38 28.1 °C 5 °C 1013.1 hPa NNE 22.7 km/h 27.4 km/h 23% 0 mm 0.0 W/m2
17:43 27.9 °C 4.9 °C 1013.1 hPa North 9.7 km/h 35.4 km/h 23% 0 mm 0.0 W/m2
18:04 27.7 °C 4.7 °C 1013.1 hPa NNE 11.1 km/h 19.3 km/h 23% 0 mm 0.0 W/m2
18:13 27.6 °C 5.2 °C 1013.1 hPa NNE 14.3 km/h 19.3 km/h 24% 0 mm 0.0 W/m2
18:33 27.4 °C 5 °C 1013.1 hPa NNE 20.9 km/h 22.5 km/h 24% 0 mm 0.0 W/m2
18:43 27.3 °C 5 °C 1013.1 hPa NE 16.3 km/h 27.4 km/h 24% 0 mm 0.0 W/m2
18:58 27.1 °C 4.8 °C 1013.1 hPa NE 14.3 km/h 25.7 km/h 24% 0 mm 0.0 W/m2
19:14 26.9 °C 5.2 °C 1013.1 hPa NE 17.7 km/h 17.7 km/h 25% 0 mm 0.0 W/m2
19:28 26.9 °C 5.2 °C 1013.1 hPa NNE 20.9 km/h 20.9 km/h 25% 0 mm 0.0 W/m2
19:39 26.8 °C 5.1 °C 1013.1 hPa NE 11.1 km/h 17.7 km/h 25% 0 mm 0.0 W/m2
19:44 26.6 °C 5 °C 1013.1 hPa NE 7.9 km/h 19.3 km/h 25% 0 mm 0.0 W/m2
19:59 26.4 °C 4.8 °C 1013.1 hPa NE 11.1 km/h 12.9 km/h 25% 0 mm 0.0 W/m2
20:09 25.9 °C 4.9 °C 1013.1 hPa Calm   11.3 km/h 26% 0 mm 0.0 W/m2
20:19 25.6 °C 4.7 °C 1013.1 hPa NE 4.7 km/h 12.9 km/h 26% 0 mm 0.0 W/m2
20:34 25.7 °C 4.8 °C 1013.1 hPa NNE 14.3 km/h 17.7 km/h 26% 0 mm 0.0 W/m2
20:50 26.3 °C 4.7 °C 1013.1 hPa NE 19.5 km/h 20.9 km/h 25% 0 mm 0.0 W/m2
21:05 26.4 °C 4.2 °C 1013.1 hPa NE 7.9 km/h 17.7 km/h 24% 0 mm 0.0 W/m2
21:20 26.1 °C 4.5 °C 1013.1 hPa NE 7.9 km/h 16.1 km/h 25% 0 mm 0.0 W/m2
21:42 25.4 °C 4.5 °C 1013.4 hPa NE 9.7 km/h 12.9 km/h 26% 0 mm 0.0 W/m2
21:50 25.2 °C 4.3 °C 1013.4 hPa Calm   9.7 km/h 26% 0 mm 0.0 W/m2
21:57 25 °C 4.2 °C 1013.4 hPa NE 6.4 km/h 12.9 km/h 26% 0 mm 0.0 W/m2
22:05 24.8 °C 4.5 °C 1013.4 hPa NE 9.7 km/h 11.3 km/h 27% 0 mm 0.0 W/m2
Canyon Roadhouse, Fishriver Canyon, Namibia
Compliments of Weather Underground - 2.25 mb